Ocean Falls, Canada
Current Conditions -  °F | °C
As of 9:00 PM on Thursday 30 Oct 2014 (Local Time) from CBBC Reporting Station
Broken Clouds Broken Clouds  
Wind Chill:   Ceiling: 14000
Heat Index:   Visibility: 9mi
Dew Point:   Wind: 5mph
Humidity: 93%   Direction: 150°SSE
Pressure: 29.68"   Gusts: NA
Location:  52.35°N, 127.7°W
Report Text: CBBC 310400Z AUTO 15004KT 090V190 9SM BKN140 BKN170 08/07 A2968 RMK SLP050
Loading
Personal Weather Stations






























Interactive Weather Map
Tropical Storm Tracking
New forecast layout! Learn more

10-Day Weather Forecast

Advertisements
Track Severe Weather on mobile